createdAt,value
2023-06-04T00:02:45.357Z,97780.19
2023-06-04T00:07:50.070Z,97778.84
2023-06-04T00:12:53.357Z,97766.56
2023-06-04T00:17:57.948Z,97766.56
2023-06-04T00:23:02.914Z,97756.00
2023-06-04T00:28:06.499Z,97751.41
2023-06-04T00:33:09.908Z,97764.03
2023-06-04T00:38:14.743Z,97760.16
2023-06-04T00:43:18.066Z,97759.31
2023-06-04T00:48:21.916Z,97758.38
2023-06-04T00:53:27.553Z,97750.75
2023-06-04T00:58:30.837Z,97756.25
2023-06-04T01:03:35.981Z,97752.56
2023-06-04T01:08:43.934Z,97752.78
2023-06-04T01:13:48.477Z,97754.66
2023-06-04T01:18:53.096Z,97750.69
2023-06-04T01:24:00.556Z,97748.66
2023-06-04T01:29:04.983Z,97746.38
2023-06-04T01:34:09.957Z,97746.03
2023-06-04T01:39:14.995Z,97744.59
2023-06-04T01:44:18.470Z,97738.94
2023-06-04T01:49:22.009Z,97743.69
2023-06-04T01:54:27.153Z,97748.22
2023-06-04T01:59:33.116Z,97755.00
2023-06-04T02:04:37.661Z,97749.91
2023-06-04T02:09:42.529Z,97750.69
2023-06-04T02:14:48.149Z,97755.38
2023-06-04T02:19:52.028Z,97756.66
2023-06-04T02:24:56.898Z,97767.81
2023-06-04T02:30:00.337Z,97769.94
2023-06-04T02:35:04.137Z,97772.97
2023-06-04T02:40:10.581Z,97770.34
2023-06-04T02:45:14.120Z,97776.22
2023-06-04T02:50:17.899Z,97772.13
2023-06-04T02:55:22.655Z,97779.16
2023-06-04T03:00:27.435Z,97784.03
2023-06-04T03:05:33.045Z,97782.66
2023-06-04T03:10:38.028Z,97783.97
2023-06-04T03:15:41.430Z,97786.03
2023-06-04T03:20:44.744Z,97787.50
2023-06-04T03:25:49.716Z,97788.28
2023-06-04T03:30:53.497Z,97790.03
2023-06-04T03:36:00.127Z,97789.28
2023-06-04T03:41:05.340Z,97779.41
2023-06-04T03:46:09.028Z,97781.41
2023-06-04T03:51:14.079Z,97791.59
2023-06-04T03:56:19.308Z,97785.72
2023-06-04T04:01:24.434Z,97789.81
2023-06-04T04:06:27.990Z,97790.16
2023-06-04T04:11:33.175Z,97790.53
2023-06-04T04:16:36.791Z,97780.13
2023-06-04T04:21:40.901Z,97782.00
2023-06-04T04:26:47.530Z,97792.53
2023-06-04T04:31:51.200Z,97782.47
2023-06-04T04:36:57.914Z,97786.78
2023-06-04T04:42:05.117Z,97787.16
2023-06-04T04:47:08.512Z,97791.16
2023-06-04T04:52:11.909Z,97793.75
2023-06-04T04:57:19.330Z,97789.84
2023-06-04T05:02:27.079Z,97793.00
2023-06-04T05:07:31.527Z,97797.06
2023-06-04T05:12:37.204Z,97793.28
2023-06-04T05:17:43.638Z,97802.44
2023-06-04T05:22:48.639Z,97798.13
2023-06-04T05:27:55.687Z,97797.72
2023-06-04T05:33:00.539Z,97804.03
2023-06-04T05:38:05.359Z,97803.25
2023-06-04T05:43:10.758Z,97791.97
2023-06-04T05:48:14.926Z,97810.28
2023-06-04T05:53:18.529Z,97795.09
2023-06-04T05:58:25.800Z,97797.13
2023-06-04T06:03:29.498Z,97790.66
2023-06-04T06:08:33.882Z,97788.84
2023-06-04T06:13:38.734Z,97796.97
2023-06-04T06:18:42.398Z,97806.25
2023-06-04T06:23:45.797Z,97802.06
2023-06-04T06:28:52.001Z,97801.22
2023-06-04T06:33:56.086Z,97803.72
2023-06-04T06:38:59.652Z,97794.75
2023-06-04T06:44:04.298Z,97809.34
2023-06-04T06:49:07.645Z,97806.88
2023-06-04T06:54:11.289Z,97792.94
2023-06-04T06:59:16.175Z,97790.66
2023-06-04T07:04:19.578Z,97788.41
2023-06-04T07:09:22.957Z,97799.97
2023-06-04T07:14:27.778Z,97802.59
2023-06-04T07:19:31.754Z,97801.72
2023-06-04T07:24:35.836Z,97790.72
2023-06-04T07:29:40.972Z,97787.06
2023-06-04T07:34:44.662Z,97780.03
2023-06-04T07:39:48.264Z,97782.03
2023-06-04T07:44:53.032Z,97778.50
2023-06-04T07:50:02.591Z,97784.78
2023-06-04T07:55:09.483Z,97779.63
2023-06-04T08:00:15.957Z,97779.63
2023-06-04T08:05:20.158Z,97784.44
2023-06-04T08:10:23.762Z,97781.31
2023-06-04T08:15:28.847Z,97782.22
2023-06-04T08:20:52.542Z,97779.09
2023-06-04T08:26:14.776Z,97784.13
2023-06-04T08:31:29.487Z,97789.03
2023-06-04T08:36:44.689Z,97782.13
2023-06-04T08:41:52.157Z,97789.78
2023-06-04T08:47:04.529Z,97795.41
2023-06-04T08:52:08.272Z,97792.22
2023-06-04T08:57:12.410Z,97786.66
2023-06-04T09:02:17.807Z,97786.25
2023-06-04T09:07:21.678Z,97795.75
2023-06-04T09:12:26.936Z,97785.72
2023-06-04T09:17:31.995Z,97790.06
2023-06-04T09:22:35.820Z,97793.78
2023-06-04T09:27:42.454Z,97788.22
2023-06-04T09:32:47.510Z,97801.56
2023-06-04T09:37:58.159Z,97786.00
2023-06-04T09:43:04.304Z,97782.84
2023-06-04T09:48:10.410Z,97793.31
2023-06-04T09:53:17.983Z,97785.22
2023-06-04T09:58:22.945Z,97789.84
2023-06-04T10:03:28.894Z,97775.84
2023-06-04T10:08:33.018Z,97778.34
2023-06-04T10:13:41.368Z,97775.16
2023-06-04T10:18:46.983Z,97770.41
2023-06-04T10:23:50.848Z,97772.97
2023-06-04T10:28:55.253Z,97772.78
2023-06-04T10:34:00.322Z,97772.03
2023-06-04T10:39:04.482Z,97769.13
2023-06-04T10:44:08.072Z,97760.50
2023-06-04T10:49:13.597Z,97760.72
2023-06-04T10:54:25.362Z,97761.53
2023-06-04T10:59:28.651Z,97761.63
2023-06-04T11:04:34.172Z,97754.06
2023-06-04T11:09:37.799Z,97753.00
2023-06-04T11:14:41.164Z,97751.00
2023-06-04T11:19:46.000Z,97746.91
2023-06-04T11:24:49.718Z,97734.28
2023-06-04T11:29:54.123Z,97749.28
2023-06-04T11:35:07.809Z,97746.91
2023-06-04T11:40:21.160Z,97746.50
2023-06-04T11:45:26.846Z,97750.84
2023-06-04T11:50:32.629Z,97748.91
2023-06-04T11:55:39.714Z,97739.94
2023-06-04T12:00:43.864Z,97745.69
2023-06-04T12:05:49.108Z,97741.44
2023-06-04T12:10:52.822Z,97736.22
2023-06-04T12:15:56.284Z,97743.16
2023-06-04T12:21:03.073Z,97746.50
2023-06-04T12:26:08.884Z,97736.56
2023-06-04T12:31:19.182Z,97742.22
2023-06-04T12:36:24.461Z,97731.75
2023-06-04T12:41:28.354Z,97724.34
2023-06-04T12:46:32.192Z,97720.34
2023-06-04T12:51:37.654Z,97723.28
2023-06-04T12:56:42.591Z,97726.91
2023-06-04T13:01:46.583Z,97716.16
2023-06-04T13:06:53.308Z,97716.03
2023-06-04T13:11:56.534Z,97722.69
2023-06-04T13:17:04.510Z,97739.78
2023-06-04T13:22:16.587Z,97714.69
2023-06-04T13:27:20.057Z,97713.25
2023-06-04T13:32:23.677Z,97708.22
2023-06-04T13:37:28.652Z,97709.91
2023-06-04T13:42:32.134Z,97708.22
2023-06-04T13:47:35.649Z,97696.03
2023-06-04T13:52:41.753Z,97703.47
2023-06-04T13:57:45.447Z,97697.41
2023-06-04T14:02:49.332Z,97704.41
2023-06-04T14:07:53.871Z,97697.53
2023-06-04T14:12:57.166Z,97693.47
2023-06-04T14:18:01.222Z,97675.59
2023-06-04T14:23:06.235Z,97677.56
2023-06-04T14:28:09.482Z,97675.09
2023-06-04T14:33:12.888Z,97671.34
2023-06-04T14:38:18.658Z,97677.88
2023-06-04T14:43:22.058Z,97667.63
2023-06-04T14:48:25.666Z,97668.53
2023-06-04T14:53:30.924Z,97676.09
2023-06-04T14:58:34.463Z,97675.84
2023-06-04T15:03:37.879Z,97655.63
2023-06-04T15:08:42.721Z,97651.63
2023-06-04T15:13:46.286Z,97656.75
2023-06-04T15:18:49.866Z,97659.16
2023-06-04T15:23:54.969Z,97656.50
2023-06-04T15:28:58.538Z,97666.53
2023-06-04T15:34:01.786Z,97666.97
2023-06-04T15:39:06.560Z,97670.19
2023-06-04T15:44:09.983Z,97658.56
2023-06-04T15:49:13.447Z,97654.59
2023-06-04T15:54:18.979Z,97652.69
2023-06-04T15:59:24.510Z,97652.06
2023-06-04T16:04:27.855Z,97647.41
2023-06-04T16:09:32.628Z,97646.72
2023-06-04T16:14:36.343Z,97649.06
2023-06-04T16:19:39.802Z,97639.78
2023-06-04T16:24:44.887Z,97635.09
2023-06-04T16:29:48.674Z,97641.06
2023-06-04T16:34:52.073Z,97628.03
2023-06-04T16:39:56.726Z,97635.53
2023-06-04T16:45:00.238Z,97637.75
2023-06-04T16:50:03.741Z,97633.72
2023-06-04T16:55:10.277Z,97634.63
2023-06-04T17:00:25.375Z,97636.06
2023-06-04T17:05:31.514Z,97643.44
2023-06-04T17:10:36.634Z,97650.97
2023-06-04T17:15:40.075Z,97643.47
2023-06-04T17:20:43.401Z,97645.00
2023-06-04T17:25:48.032Z,97654.19
2023-06-04T17:30:51.570Z,97651.75
2023-06-04T17:35:54.956Z,97647.38
2023-06-04T17:40:59.582Z,97661.47
2023-06-04T17:46:03.056Z,97671.97
2023-06-04T17:51:06.631Z,97670.38
2023-06-04T17:56:11.366Z,97674.53
2023-06-04T18:01:14.759Z,97673.22
2023-06-04T18:06:18.425Z,97680.63
2023-06-04T18:11:23.476Z,97683.53
2023-06-04T18:16:26.932Z,97688.44
2023-06-04T18:21:30.435Z,97693.50
2023-06-04T18:26:35.188Z,97697.13
2023-06-04T18:31:39.572Z,97693.91
2023-06-04T18:36:43.038Z,97705.63
2023-06-04T18:41:49.172Z,97712.69
2023-06-04T18:46:52.655Z,97715.47
2023-06-04T18:51:56.335Z,97717.13
2023-06-04T18:57:02.410Z,97723.63
2023-06-04T19:02:06.387Z,97740.81
2023-06-04T19:07:10.376Z,97750.63
2023-06-04T19:12:15.525Z,97755.59
2023-06-04T19:17:20.336Z,97768.25
2023-06-04T19:22:24.076Z,97778.09
2023-06-04T19:27:29.138Z,97791.38
2023-06-04T19:32:32.873Z,97796.84
2023-06-04T19:37:37.492Z,97782.97
2023-06-04T19:42:42.313Z,97775.69
2023-06-04T19:47:45.846Z,97781.44
2023-06-04T19:52:49.540Z,97787.06
2023-06-04T19:57:56.610Z,97789.69
2023-06-04T20:03:02.668Z,97788.13
2023-06-04T20:08:06.532Z,97795.13
2023-06-04T20:13:11.463Z,97794.19
2023-06-04T20:18:15.140Z,97802.66
2023-06-04T20:23:18.747Z,97799.78
2023-06-04T20:28:23.399Z,97802.09
2023-06-04T20:33:27.798Z,97813.06
2023-06-04T20:38:31.351Z,97818.50
2023-06-04T20:43:48.776Z,97819.00
2023-06-04T20:48:52.445Z,97824.03
2023-06-04T20:53:55.893Z,97823.53
2023-06-04T20:59:00.629Z,97826.13
2023-06-04T21:04:04.450Z,97828.53
2023-06-04T21:09:08.421Z,97823.22
2023-06-04T21:14:13.077Z,97836.28
2023-06-04T21:19:16.516Z,97828.25
2023-06-04T21:24:19.847Z,97834.06
2023-06-04T21:29:24.794Z,97825.25
2023-06-04T21:34:28.287Z,97828.34
2023-06-04T21:39:32.869Z,97831.03
2023-06-04T21:44:37.576Z,97836.50
2023-06-04T21:49:41.572Z,97839.50
2023-06-04T21:54:45.077Z,97832.63
2023-06-04T21:59:49.835Z,97831.47
2023-06-04T22:04:53.126Z,97833.50
2023-06-04T22:09:56.426Z,97830.56
2023-06-04T22:15:01.133Z,97826.84
2023-06-04T22:20:04.370Z,97830.66
2023-06-04T22:25:08.425Z,97836.28
2023-06-04T22:30:13.893Z,97839.22
2023-06-04T22:35:17.391Z,97835.22
2023-06-04T22:40:21.377Z,97830.03
2023-06-04T22:45:26.151Z,97828.63
2023-06-04T22:50:30.182Z,97827.13
2023-06-04T22:55:33.519Z,97821.44
2023-06-04T23:00:39.982Z,97822.59
2023-06-04T23:05:43.339Z,97820.69
2023-06-04T23:10:46.637Z,97822.41
2023-06-04T23:15:51.727Z,97821.84
2023-06-04T23:20:55.238Z,97824.09
2023-06-04T23:25:59.278Z,97821.50
2023-06-04T23:31:03.987Z,97815.78
2023-06-04T23:36:07.742Z,97814.94
2023-06-04T23:41:11.364Z,97812.31
2023-06-04T23:46:16.658Z,97813.69
2023-06-04T23:51:20.013Z,97812.38
2023-06-04T23:56:23.328Z,97815.34
